METAR Data
IDs: Format: Raw Decoded Include TAF

Data at: 1853 UTC 14 Dec 2018

KCRS 141753Z AUTO 33019G29KT 10SM -RA OVC013 07/06 A2996 RMK AO2 PK WND 33029/1753 SLP145 P0001 60001 T00720056 10078 20067 50009
KCRS 141653Z AUTO 33015G23KT 6SM -RA BR OVC014 07/06 A2998 RMK AO2 RAB23 SLP150 P0000 T00720056
KCRS 141553Z AUTO 33017G26KT 10SM OVC011 07/06 A2996 RMK AO2 PK WND 32026/1550 SLP147 T00720056
KCRS 141521Z AUTO 33014G23KT 4SM BR BKN008 OVC013 07/06 A2994 RMK AO2 CIG 006V011 T00670056
KCRS 141453Z AUTO 32015G23KT 7SM OVC013 07/06 A2993 RMK AO2 PK WND 33028/1431 SLP137 60000 T00720056 53027
KCRS 141353Z AUTO 33014G21KT 10SM OVC011 07/06 A2990 RMK AO2 PK WND 34026/1325 SLP126 T00720056
KCRS 141339Z AUTO 33014G25KT 10SM OVC011 07/06 A2989 RMK AO2 PK WND 34026/1325 T00720056
KCRS 141253Z AUTO 32016G23KT 5SM BR BKN007 OVC018 07/07 A2988 RMK AO2 RAB19E47 CIG 005V013 SLP116 P0000 T00720067
KCRS 141233Z AUTO 32016G23KT 3SM -RA BR BKN006 OVC013 07/07 A2987 RMK AO2 RAB19 P0000 T00720067
KCRS 141226Z AUTO 33017G23KT 2 1/2SM -RA BR BKN006 OVC013 07/07 A2987 RMK AO2 RAB19 P0000 T00720067
KCRS 141153Z AUTO 33015G20KT 3SM BR BKN007 OVC018 07/07 A2985 RMK AO2 RAB06E13B47E51 CIG 005V011 SLP108 P0000 60001 70001 T00720067 10089 20072 53010
KCRS 141053Z AUTO 32011KT 3SM BR OVC007 07/07 A2984 RMK AO2 RAE0954B11E42 CIG 003V011 SLP103 P0001 T00720067
KCRS 141033Z AUTO 32009KT 3SM -RA BR OVC005 08/07 A2983 RMK AO2 RAE0954B11 CIG 003V010 P0001 T00780072
KCRS 141018Z AUTO 33010KT 2 1/2SM -RA BR OVC005 08/07 A2983 RMK AO2 RAE0954B11 CIG 003V008 P0000 T00780067
KCRS 140952Z AUTO 34010KT 3SM -RA BR OVC005 07/07 A2983 RMK AO2 CIG 003V008 SLP100 P0000 T00720067
KCRS 140951Z AUTO 33010KT 3SM -RA BR OVC005 07/07 A2983 RMK AO2 CIG 003V008 P0000
KCRS 140921Z AUTO 34008KT 2 1/2SM -RA BR BKN004 OVC011 07/07 A2982 RMK AO2 CIG 003V009 P0000 T00720067
KCRS 140853Z AUTO 35010KT 2 1/2SM -RA BR OVC007 08/07 A2982 RMK AO2 RAB42 CIG 004V010 SLP097 P0000 60000 T00780067 52007
KCRS 140849Z AUTO 35008KT 2 1/2SM -RA BR OVC007 08/07 A2982 RMK AO2 RAB42 CIG 004V010 P0000
KCRS 140753Z AUTO 35007KT 10SM BKN009 OVC014 08/07 A2980 RMK AO2 CIG 006V012 SLP091 T00780067
KCRS 140749Z AUTO 35007KT 10SM BKN009 OVC014 08/07 A2980 RMK AO2 CIG 006V011
KCRS 140733Z AUTO 35008KT 10SM FEW009 OVC016 08/07 A2979 RMK AO2 T00830067
KCRS 140704Z AUTO 35010KT 10SM FEW010 OVC019 08/07 A2979 RMK AO2 T00830067
KCRS 140653Z AUTO 35012KT 10SM BKN012 OVC019 09/07 A2979 RMK AO2 SLP085 T00890067
KCRS 140636Z AUTO 34005KT 10SM BKN012 OVC019 09/07 A2979 RMK AO2 T00890067
KCRS 140553Z AUTO 33005KT 10SM BKN018 09/07 A2979 RMK AO2 SLP085 T00890067 10122 20072 402060072 52005
KCRS 140546Z AUTO 34004KT 10SM BKN018 09/07 A2979 RMK AO2 T00890067
KCRS 140519Z AUTO 35005KT 10SM FEW010 SCT029 08/07 A2979 RMK AO2 T00780067
KCRS 140453Z AUTO 34006KT 10SM FEW010 OVC026 09/07 A2979 RMK AO2 SLP087 T00890067
KCRS 140428Z AUTO 33004KT 10SM SCT013 OVC023 09/07 A2978 RMK AO2 T00890072
KCRS 140353Z AUTO 30006KT 10SM OVC011 09/07 A2977 RMK AO2 SLP080 T00890072
KCRS 140333Z AUTO 26004KT 10SM BKN013 08/07 A2977 RMK AO2 T00830072
KCRS 140253Z AUTO 00000KT 10SM CLR 08/06 A2977 RMK AO2 SLP081 T00830061 51010
KCRS 140207Z AUTO 28006KT 10SM FEW016 SCT022 09/07 A2977 RMK AO2 T00890067
KCRS 140153Z AUTO 28007KT 10SM BKN022 09/07 A2977 RMK AO2 SLP079 T00940067
KCRS 140123Z AUTO 27008KT 10SM BKN018 10/07 A2977 RMK AO2 T01000072
KCRS 140053Z AUTO 28006KT 10SM FEW020 SCT075 11/07 A2977 RMK AO2 SLP078 T01060067
KCRS 132353Z AUTO 29014G24KT 10SM SCT075 12/07 A2974 RMK AO2 PK WND 29026/2339 SLP069 T01220067 10206 20122 53029
KCRS 132253Z AUTO 26014G19KT 10SM CLR 17/05 A2971 RMK AO2 SLP058 T01670050
KCRS 132153Z AUTO 25011KT 10SM BKN100 BKN120 18/08 A2968 RMK AO2 SLP047 T01780083
KCRS 132053Z AUTO 25013G21KT 10SM SCT037 OVC090 19/11 A2965 RMK AO2 LTG DSNT NE SLP038 T01890111 55008
KCRS 131953Z AUTO 24012KT 10SM FEW035 BKN080 OVC095 20/13 A2965 RMK AO2 LTG DSNT N AND E SLP035 T02000128
KCRS 131934Z AUTO 10SM OVC036 19/16 A2965 RMK AO2 LTG DSNT NE T01940156
KCRS 131904Z AUTO 12004KT 10SM VCTS FEW020 BKN033 OVC040 18/16 A2965 RMK AO2 T01780161
KCRS 131853Z AUTO 14005KT 10SM SCT023 BKN029 OVC043 18/16 A2966 RMK AO2 SLP040 T01830156
KCRS 131838Z AUTO 13008KT 10SM FEW014 BKN020 BKN042 19/16 A2966 RMK AO2 T01890161
KCRS 131753Z AUTO 14012KT 10SM FEW009 FEW031 SCT040 19/16 A2968 RMK AO2 SLP046 T01940161 10194 20156 58020
KCRS 131741Z AUTO 14010KT 10SM SCT009 SCT015 BKN032 19/16 A2969 RMK AO2 T01890161
KCRS 131719Z AUTO 13010KT 10SM BKN008 BKN012 18/16 A2970 RMK AO2 T01780161
KCRS 131708Z AUTO 14008KT 10SM SCT007 BKN012 18/16 A2970 RMK AO2 T01780156
KCRS 131653Z AUTO 13010KT 10SM BKN008 OVC012 18/16 A2971 RMK AO2 CIG 006V010 SLP057 T01780156
KCRS 131553Z AUTO 13008KT 10SM OVC006 17/16 A2973 RMK AO2 SLP065 T01720156
KCRS 131453Z AUTO 16006KT 9SM OVC006 17/16 A2974 RMK AO2 SLP068 T01670156 51007
KCRS 131353Z AUTO 15010KT 10SM OVC007 16/15 A2973 RMK AO2 SLP065 T01610150
KCRS 131253Z AUTO 15009KT 10SM OVC007 16/15 A2973 RMK AO2 SLP066 T01610150
KCRS 131153Z AUTO 16010KT 10SM BKN009 BKN012 OVC020 16/15 A2972 RMK AO2 SLP061 60000 T01610150 10172 20161 55001
KCRS 131148Z AUTO 15011KT 10SM BKN009 BKN014 OVC018 16/15 A2972 RMK AO2 CIG 008V011
KCRS 131053Z AUTO 15011KT 10SM OVC011 16/14 A2972 RMK AO2 SLP060 T01610144
KCRS 130953Z AUTO 14009KT 10SM OVC012 17/15 A2972 RMK AO2 SLP062 T01670150
KCRS 130918Z AUTO 17010KT 10SM BKN013 BKN022 BKN090 17/15 A2975 RMK AO2 T01670150
KCRS 130853Z AUTO 14015G21KT 10SM FEW070 BKN100 17/15 A2974 RMK AO2 RAB06E34B38E47 PRESFR SLP069 P0000 60000 T01720150 58032
KCRS 130835Z AUTO 15018KT 10SM SCT014 BKN100 17/15 A2977 RMK AO2 RAB06E34 PRESFR P0000 T01670150
KCRS 130810Z AUTO 16016KT 10SM -RA BKN014 BKN022 OVC095 17/15 A2979 RMK AO2 LTG DSNT SE RAB06 P0000 T01670150
KCRS 130753Z AUTO 16014KT 10SM OVC015 17/15 A2980 RMK AO2 LTG DSNT SE RAE0655 SLP088 P0000 T01670150
KCRS 130733Z AUTO 15011KT 10SM OVC015 17/15 A2980 RMK AO2 RAE0655 P0000 T01670150